createdAt,value
2018-08-11T00:00:35.094Z,2.20
2018-08-11T00:03:02.227Z,1.17
2018-08-11T00:05:29.352Z,2.53
2018-08-11T00:07:56.459Z,1.00
2018-08-11T00:10:23.564Z,0.90
2018-08-11T00:12:50.690Z,2.00
2018-08-11T00:15:18.680Z,1.23
2018-08-11T00:17:45.836Z,1.80
2018-08-11T00:20:15.900Z,0.70
2018-08-11T00:22:43.037Z,0.77
2018-08-11T00:25:14.057Z,1.03
2018-08-11T00:27:41.165Z,3.80
2018-08-11T00:30:11.845Z,1.40
2018-08-11T00:32:38.945Z,4.03
2018-08-11T00:35:07.641Z,1.80
2018-08-11T00:37:38.978Z,3.33
2018-08-11T00:40:08.351Z,1.37
2018-08-11T00:42:35.841Z,3.57
2018-08-11T00:45:04.553Z,1.07
2018-08-11T00:47:31.669Z,2.30
2018-08-11T00:49:58.794Z,0.70
2018-08-11T00:52:25.954Z,3.03
2018-08-11T00:54:53.023Z,0.70
2018-08-11T00:57:20.129Z,2.70
2018-08-11T00:59:47.257Z,1.70
2018-08-11T01:02:14.379Z,0.87
2018-08-11T01:04:41.673Z,1.90
2018-08-11T01:07:08.771Z,4.20
2018-08-11T01:09:35.901Z,1.10
2018-08-11T01:12:03.001Z,2.10
2018-08-11T01:14:30.109Z,2.87
2018-08-11T01:16:57.211Z,0.87
2018-08-11T01:19:24.317Z,1.63
2018-08-11T01:21:51.448Z,1.27
2018-08-11T01:24:18.554Z,1.40
2018-08-11T01:26:45.681Z,1.77
2018-08-11T01:29:12.786Z,3.17
2018-08-11T01:31:39.893Z,3.07
2018-08-11T01:34:07.040Z,2.73
2018-08-11T01:36:34.122Z,3.40
2018-08-11T01:39:01.237Z,2.37
2018-08-11T01:41:28.342Z,4.43
2018-08-11T01:43:57.802Z,2.57
2018-08-11T01:46:24.901Z,1.53
2018-08-11T01:48:52.011Z,0.97
2018-08-11T01:51:19.102Z,3.67
2018-08-11T01:53:46.189Z,2.17
2018-08-11T01:56:15.314Z,3.17
2018-08-11T01:58:42.412Z,2.00
2018-08-11T02:01:09.523Z,3.27
2018-08-11T02:03:36.638Z,2.73
2018-08-11T02:07:33.353Z,2.07
2018-08-11T02:10:00.449Z,9.97
2018-08-11T02:12:27.560Z,2.67
2018-08-11T02:14:54.656Z,2.20
2018-08-11T02:17:21.758Z,3.63
2018-08-11T02:19:48.852Z,0.93
2018-08-11T02:22:15.949Z,5.47
2018-08-11T02:24:43.065Z,1.77
2018-08-11T02:27:10.185Z,2.77
2018-08-11T02:29:37.296Z,1.90
2018-08-11T02:32:04.393Z,4.13
2018-08-11T02:34:31.525Z,1.03
2018-08-11T02:36:58.649Z,3.37
2018-08-11T02:39:25.758Z,5.77
2018-08-11T02:41:52.837Z,2.33
2018-08-11T02:44:19.930Z,1.90
2018-08-11T02:46:47.034Z,1.43
2018-08-11T02:49:14.173Z,6.00
2018-08-11T02:51:41.285Z,3.40
2018-08-11T02:54:08.381Z,3.17
2018-08-11T02:56:35.461Z,3.67
2018-08-11T02:59:02.639Z,1.97
2018-08-11T03:01:30.065Z,3.47
2018-08-11T03:03:57.191Z,2.33
2018-08-11T03:06:24.290Z,3.73
2018-08-11T03:08:51.396Z,14.63
2018-08-11T03:11:18.842Z,4.13
2018-08-11T03:13:45.941Z,4.60
2018-08-11T03:16:13.039Z,3.00
2018-08-11T03:18:40.436Z,0.70
2018-08-11T03:21:07.519Z,3.07
2018-08-11T03:23:34.628Z,7.07
2018-08-11T03:26:01.745Z,3.13
2018-08-11T03:28:28.864Z,3.37
2018-08-11T03:30:55.992Z,4.03
2018-08-11T03:33:23.081Z,2.87
2018-08-11T03:35:50.233Z,4.10
2018-08-11T03:38:17.341Z,36.70
2018-08-11T03:40:44.471Z,1.83
2018-08-11T03:43:11.929Z,5.50
2018-08-11T03:45:39.022Z,3.27
2018-08-11T03:48:06.171Z,6.57
2018-08-11T03:50:37.297Z,4.17
2018-08-11T03:53:04.759Z,5.67
2018-08-11T03:55:31.853Z,2.13
2018-08-11T03:57:58.970Z,8.17
2018-08-11T04:00:26.086Z,5.37
2018-08-11T04:02:53.197Z,2.17
2018-08-11T04:05:20.301Z,2.70
2018-08-11T04:07:47.426Z,10.37
2018-08-11T04:10:14.553Z,0.90
2018-08-11T04:12:41.681Z,6.63
2018-08-11T04:15:08.821Z,3.73
2018-08-11T04:17:39.866Z,5.10
2018-08-11T04:20:08.753Z,1.80
2018-08-11T04:22:36.014Z,7.70
2018-08-11T04:25:03.809Z,2.30
2018-08-11T04:27:35.222Z,2.27
2018-08-11T04:30:03.108Z,2.07
2018-08-11T04:32:30.211Z,0.70
2018-08-11T04:34:57.305Z,5.23
2018-08-11T04:37:24.570Z,10.33
2018-08-11T04:39:51.670Z,3.23
2018-08-11T04:42:18.781Z,4.77
2018-08-11T04:44:45.875Z,2.73
2018-08-11T04:47:15.371Z,4.30
2018-08-11T04:49:42.474Z,1.27
2018-08-11T04:52:09.593Z,5.13
2018-08-11T04:54:36.710Z,1.20
2018-08-11T04:57:03.997Z,1.80
2018-08-11T04:59:31.126Z,3.60
2018-08-11T05:01:58.221Z,0.90
2018-08-11T05:04:25.327Z,0.73
2018-08-11T05:06:52.421Z,2.07
2018-08-11T05:09:19.524Z,3.20
2018-08-11T05:11:46.669Z,4.83
2018-08-11T05:16:46.585Z,2.13
2018-08-11T05:19:18.013Z,2.00
2018-08-11T05:21:45.107Z,2.47
2018-08-11T05:24:12.210Z,2.47
2018-08-11T05:26:47.462Z,2.47
2018-08-11T05:29:14.593Z,4.93
2018-08-11T05:31:41.695Z,6.63
2018-08-11T05:34:08.785Z,2.83
2018-08-11T05:36:35.908Z,2.63
2018-08-11T05:39:05.621Z,3.70
2018-08-11T05:41:32.723Z,4.42
2018-08-11T05:43:59.820Z,2.83
2018-08-11T05:46:26.936Z,3.53
2018-08-11T05:48:54.036Z,7.83
2018-08-11T05:51:21.141Z,2.90
2018-08-11T05:53:48.625Z,21.97
2018-08-11T05:56:15.759Z,3.67
2018-08-11T05:58:42.857Z,5.93
2018-08-11T06:01:09.969Z,3.13
2018-08-11T06:03:37.042Z,5.07
2018-08-11T06:06:04.139Z,3.20
2018-08-11T06:08:31.229Z,3.40
2018-08-11T06:10:58.301Z,3.47
2018-08-11T06:13:25.368Z,3.63
2018-08-11T06:15:52.441Z,6.97
2018-08-11T06:18:19.529Z,6.53
2018-08-11T06:20:46.598Z,5.40
2018-08-11T06:23:13.981Z,9.20
2018-08-11T06:25:41.066Z,5.87
2018-08-11T06:28:08.169Z,7.40
2018-08-11T06:30:35.421Z,1.97
2018-08-11T06:40:06.569Z,1.97
2018-08-11T06:42:33.642Z,15.55
2018-08-11T06:45:00.713Z,25.07
2018-08-11T06:47:27.790Z,14.83
2018-08-11T06:49:55.297Z,16.97
2018-08-11T06:52:22.369Z,10.53
2018-08-11T06:54:49.452Z,7.47
2018-08-11T06:57:16.912Z,5.95
2018-08-11T06:59:44.006Z,7.67
2018-08-11T07:02:11.090Z,7.60
2018-08-11T07:04:40.277Z,2.40
2018-08-11T07:07:07.398Z,3.90
2018-08-11T07:09:34.488Z,4.33
2018-08-11T07:12:01.573Z,5.77
2018-08-11T07:14:28.665Z,2.47
2018-08-11T07:16:55.757Z,6.07
2018-08-11T07:19:22.833Z,4.73
2018-08-11T07:21:49.907Z,5.53
2018-08-11T07:24:16.999Z,4.53
2018-08-11T07:26:44.098Z,4.00
2018-08-11T07:29:11.173Z,9.07
2018-08-11T07:31:38.257Z,8.43
2018-08-11T07:34:05.346Z,4.07
2018-08-11T07:36:32.465Z,5.03
2018-08-11T07:38:59.522Z,3.43
2018-08-11T07:41:26.614Z,3.17
2018-08-11T07:43:53.692Z,3.57
2018-08-11T07:46:21.169Z,2.60
2018-08-11T07:48:48.256Z,1.70
2018-08-11T07:51:15.349Z,4.57
2018-08-11T07:53:42.553Z,7.23
2018-08-11T07:56:09.666Z,1.87
2018-08-11T07:58:36.865Z,3.57
2018-08-11T08:01:03.958Z,4.73
2018-08-11T08:03:31.145Z,5.93
2018-08-11T08:05:58.217Z,6.50
2018-08-11T08:08:25.313Z,6.83
2018-08-11T08:10:52.470Z,4.00
2018-08-11T08:13:19.919Z,2.23
2018-08-11T08:20:40.317Z,4.87
2018-08-11T08:23:07.413Z,5.72
2018-08-11T08:25:34.648Z,3.80
2018-08-11T08:28:01.729Z,6.13
2018-08-11T08:30:28.836Z,4.27
2018-08-11T08:33:00.029Z,11.27
2018-08-11T08:35:27.109Z,4.58
2018-08-11T08:37:54.193Z,3.37
2018-08-11T08:40:21.261Z,1.57
2018-08-11T08:42:48.341Z,7.30
2018-08-11T08:45:19.487Z,2.87
2018-08-11T08:47:46.653Z,4.37
2018-08-11T08:50:13.877Z,4.47
2018-08-11T08:52:43.309Z,5.87
2018-08-11T08:55:10.428Z,16.37
2018-08-11T08:57:37.553Z,18.67
2018-08-11T09:00:04.753Z,14.03
2018-08-11T09:04:58.580Z,12.10
2018-08-11T09:07:27.677Z,8.97
2018-08-11T09:09:54.772Z,15.28
2018-08-11T09:12:22.077Z,10.28
2018-08-11T09:14:49.165Z,6.30
2018-08-11T09:17:16.302Z,13.83
2018-08-11T09:19:43.402Z,8.40
2018-08-11T09:22:10.522Z,9.57
2018-08-11T09:24:37.606Z,5.13
2018-08-11T09:27:04.727Z,4.20
2018-08-11T09:29:31.841Z,4.00
2018-08-11T09:31:58.915Z,1.77
2018-08-11T09:34:26.012Z,4.40
2018-08-11T09:36:53.104Z,5.30
2018-08-11T09:39:20.185Z,1.87
2018-08-11T09:41:47.283Z,2.37
2018-08-11T09:44:14.377Z,4.40
2018-08-11T09:46:41.469Z,5.33
2018-08-11T09:49:08.553Z,2.47
2018-08-11T09:51:35.656Z,5.67
2018-08-11T09:54:02.777Z,2.80
2018-08-11T09:56:29.880Z,2.50
2018-08-11T09:58:56.973Z,1.23
2018-08-11T10:01:29.793Z,1.93
2018-08-11T10:03:56.882Z,2.33
2018-08-11T10:06:23.969Z,1.63
2018-08-11T10:08:51.085Z,2.53
2018-08-11T10:11:18.209Z,3.40
2018-08-11T10:13:45.297Z,3.77
2018-08-11T10:16:12.419Z,0.77
2018-08-11T10:18:39.543Z,5.03
2018-08-11T10:21:06.919Z,2.58
2018-08-11T10:23:34.029Z,1.13
2018-08-11T10:26:01.226Z,1.80
2018-08-11T10:28:28.330Z,0.50
2018-08-11T10:30:55.410Z,2.20
2018-08-11T10:33:22.517Z,2.90
2018-08-11T10:35:53.676Z,2.57
2018-08-11T10:38:20.770Z,1.73
2018-08-11T10:40:47.878Z,2.70
2018-08-11T10:43:14.981Z,2.27
2018-08-11T10:45:42.082Z,1.70
2018-08-11T10:48:09.164Z,3.70
2018-08-11T10:50:36.284Z,3.23
2018-08-11T10:53:03.353Z,2.20
2018-08-11T10:55:34.593Z,3.33
2018-08-11T10:58:01.670Z,1.40
2018-08-11T11:00:28.749Z,3.50
2018-08-11T11:02:56.161Z,2.57
2018-08-11T11:05:23.252Z,5.10
2018-08-11T11:07:50.341Z,2.07
2018-08-11T11:10:19.482Z,1.43
2018-08-11T11:12:46.585Z,2.47
2018-08-11T11:15:13.673Z,1.70
2018-08-11T11:17:40.753Z,1.33
2018-08-11T11:20:09.089Z,2.80
2018-08-11T11:22:36.192Z,1.80
2018-08-11T11:25:03.578Z,0.70
2018-08-11T11:27:30.681Z,1.37
2018-08-11T11:29:57.757Z,0.90
2018-08-11T11:32:24.869Z,4.00
2018-08-11T11:34:52.000Z,4.23
2018-08-11T11:37:19.152Z,2.37
2018-08-11T11:39:46.221Z,1.23
2018-08-11T11:42:13.309Z,0.67
2018-08-11T11:44:40.385Z,2.07
2018-08-11T11:47:07.497Z,2.07
2018-08-11T11:49:34.615Z,0.63
2018-08-11T11:52:01.712Z,5.63
2018-08-11T11:54:28.833Z,1.90
2018-08-11T11:56:55.932Z,0.47
2018-08-11T11:59:23.013Z,2.90
2018-08-11T12:01:50.118Z,3.47
2018-08-11T12:04:17.209Z,2.97
2018-08-11T12:06:44.299Z,2.27
2018-08-11T12:09:11.585Z,4.00
2018-08-11T12:11:38.885Z,1.17
2018-08-11T12:14:06.265Z,1.77
2018-08-11T12:16:33.357Z,0.77
2018-08-11T12:19:00.437Z,1.57
2018-08-11T12:21:27.520Z,0.97
2018-08-11T12:23:54.625Z,3.33
2018-08-11T12:26:21.713Z,3.37
2018-08-11T12:28:48.803Z,2.30
2018-08-11T12:31:18.206Z,2.87
2018-08-11T12:33:45.192Z,2.10
2018-08-11T12:36:12.310Z,0.93
2018-08-11T12:38:39.437Z,2.30
2018-08-11T12:41:06.521Z,3.20
2018-08-11T12:43:33.605Z,1.00
2018-08-11T12:46:00.810Z,2.50
2018-08-11T12:48:27.797Z,1.67
2018-08-11T12:50:54.893Z,2.87
2018-08-11T12:53:22.028Z,0.53
2018-08-11T12:55:49.069Z,3.83
2018-08-11T12:58:16.461Z,1.70
2018-08-11T13:00:43.575Z,3.63
2018-08-11T13:03:10.657Z,2.57
2018-08-11T13:08:15.001Z,1.23
2018-08-11T13:10:42.103Z,2.00
2018-08-11T13:13:09.199Z,3.87
2018-08-11T13:15:36.288Z,0.83
2018-08-11T13:18:03.745Z,3.40
2018-08-11T13:20:30.835Z,5.90
2018-08-11T13:22:58.250Z,2.00
2018-08-11T13:25:25.317Z,3.67
2018-08-11T13:27:52.405Z,2.33
2018-08-11T13:30:19.497Z,4.17
2018-08-11T13:32:46.601Z,4.03
2018-08-11T13:35:13.685Z,1.47
2018-08-11T13:37:40.769Z,2.10
2018-08-11T13:40:08.237Z,2.10
2018-08-11T13:42:35.336Z,1.97
2018-08-11T13:45:02.461Z,4.83
2018-08-11T13:47:29.547Z,1.33
2018-08-11T13:49:56.618Z,3.53
2018-08-11T13:52:23.717Z,1.00
2018-08-11T13:54:50.811Z,1.93
2018-08-11T13:57:17.901Z,1.73
2018-08-11T13:59:44.993Z,0.90
2018-08-11T14:02:12.077Z,2.80
2018-08-11T14:04:39.170Z,1.70
2018-08-11T14:07:06.257Z,2.10
2018-08-11T14:09:33.361Z,1.00
2018-08-11T14:12:04.545Z,4.50
2018-08-11T14:14:31.623Z,1.67
2018-08-11T14:16:58.730Z,3.20
2018-08-11T14:19:25.806Z,3.10
2018-08-11T14:21:52.913Z,2.20
2018-08-11T14:24:20.017Z,1.13
2018-08-11T14:26:47.093Z,0.97
2018-08-11T14:29:14.173Z,2.90
2018-08-11T14:31:47.301Z,4.10
2018-08-11T14:34:14.385Z,3.80
2018-08-11T14:36:41.513Z,4.80
2018-08-11T14:39:08.937Z,1.90
2018-08-11T14:41:36.050Z,0.57
2018-08-11T14:44:03.149Z,0.90
2018-08-11T14:46:30.256Z,0.93
2018-08-11T14:48:57.348Z,1.47
2018-08-11T14:51:30.559Z,1.10
2018-08-11T14:53:57.876Z,4.33
2018-08-11T14:56:25.032Z,3.70
2018-08-11T14:58:54.097Z,0.60
2018-08-11T15:01:21.174Z,2.40
2018-08-11T15:03:48.581Z,2.37
2018-08-11T15:06:15.665Z,3.70
2018-08-11T15:08:42.742Z,1.57
2018-08-11T15:11:09.827Z,5.37
2018-08-11T15:13:37.098Z,2.07
2018-08-11T15:16:10.236Z,1.93
2018-08-11T15:18:37.453Z,2.97
2018-08-11T15:21:04.537Z,1.03
2018-08-11T15:23:31.621Z,0.60
2018-08-11T15:25:58.720Z,0.40
2018-08-11T15:28:25.814Z,2.13
2018-08-11T15:30:52.893Z,1.50
2018-08-11T15:33:19.982Z,1.87
2018-08-11T15:35:47.076Z,1.60
2018-08-11T15:38:18.213Z,2.90
2018-08-11T15:40:45.305Z,0.70
2018-08-11T15:43:12.401Z,3.17
2018-08-11T15:45:39.514Z,1.03
2018-08-11T15:48:06.586Z,1.10
2018-08-11T15:50:33.695Z,1.50
2018-08-11T15:53:00.776Z,2.60
2018-08-11T15:55:27.897Z,2.60
2018-08-11T15:57:54.985Z,2.80
2018-08-11T16:00:22.061Z,3.37
2018-08-11T16:02:49.149Z,2.80
2018-08-11T16:05:16.229Z,0.63
2018-08-11T16:07:43.465Z,1.17
2018-08-11T16:10:10.550Z,2.87
2018-08-11T16:12:37.653Z,0.90
2018-08-11T16:15:04.753Z,6.23
2018-08-11T16:17:31.825Z,1.87
2018-08-11T16:19:59.241Z,2.03
2018-08-11T16:22:26.330Z,3.10
2018-08-11T16:24:53.417Z,2.97
2018-08-11T16:27:22.037Z,2.30
2018-08-11T16:29:49.113Z,3.80
2018-08-11T16:32:16.201Z,4.13
2018-08-11T16:34:43.316Z,4.67
2018-08-11T16:37:10.398Z,1.77
2018-08-11T16:39:37.485Z,0.93
2018-08-11T16:42:04.705Z,1.23
2018-08-11T16:44:31.785Z,3.07
2018-08-11T16:46:58.863Z,5.37
2018-08-11T16:49:26.329Z,4.77
2018-08-11T16:51:53.417Z,6.37
2018-08-11T16:54:20.585Z,2.83
2018-08-11T16:56:47.661Z,0.50
2018-08-11T16:59:14.738Z,3.37
2018-08-11T17:01:41.824Z,6.43
2018-08-11T17:06:42.478Z,2.07
2018-08-11T17:09:10.613Z,0.53
2018-08-11T17:11:37.713Z,2.20
2018-08-11T17:14:05.210Z,1.30
2018-08-11T17:16:32.308Z,1.30
2018-08-11T17:18:59.378Z,2.27
2018-08-11T17:21:26.449Z,3.30
2018-08-11T17:23:53.545Z,5.70
2018-08-11T17:26:20.637Z,1.97
2018-08-11T17:28:47.725Z,2.23
2018-08-11T17:31:14.833Z,0.93
2018-08-11T17:33:42.049Z,3.13
2018-08-11T17:36:09.147Z,3.03
2018-08-11T17:38:40.538Z,1.87
2018-08-11T17:41:07.591Z,9.43
2018-08-11T17:43:34.665Z,9.43
2018-08-11T17:46:01.794Z,8.37
2018-08-11T17:48:28.861Z,92.17
2018-08-11T17:50:56.273Z,269.43
2018-08-11T17:53:23.365Z,206.63
2018-08-11T17:55:50.437Z,143.90
2018-08-11T17:58:17.685Z,126.83
2018-08-11T18:00:44.761Z,68.87
2018-08-11T18:03:11.835Z,66.23
2018-08-11T18:05:38.920Z,51.30
2018-08-11T18:08:05.997Z,41.50
2018-08-11T18:10:33.141Z,31.93
2018-08-11T18:13:00.209Z,26.73
2018-08-11T18:15:27.331Z,16.13
2018-08-11T18:17:54.529Z,15.33
2018-08-11T18:20:21.613Z,19.77
2018-08-11T18:22:48.717Z,15.67
2018-08-11T18:25:22.231Z,13.03
2018-08-11T18:27:49.269Z,11.87
2018-08-11T18:30:16.510Z,19.10
2018-08-11T18:32:43.581Z,9.93
2018-08-11T18:35:10.677Z,14.27
2018-08-11T18:37:37.767Z,12.23
2018-08-11T18:40:05.281Z,20.97
2018-08-11T18:42:32.549Z,31.33
2018-08-11T18:44:59.660Z,38.20
2018-08-11T18:47:30.886Z,46.23
2018-08-11T18:49:57.989Z,33.07
2018-08-11T18:52:25.126Z,28.20
2018-08-11T18:54:52.245Z,21.30
2018-08-11T18:57:19.377Z,14.47
2018-08-11T18:59:46.518Z,7.53
2018-08-11T19:02:17.701Z,6.53
2018-08-11T19:04:44.801Z,3.70
2018-08-11T19:07:11.935Z,35.63
2018-08-11T19:09:39.053Z,57.20
2018-08-11T19:12:06.194Z,49.40
2018-08-11T19:14:33.303Z,31.57
2018-08-11T19:17:00.419Z,11.73
2018-08-11T19:19:27.567Z,13.00
2018-08-11T19:21:54.702Z,18.53
2018-08-11T19:24:21.848Z,9.70
2018-08-11T19:26:48.940Z,80.63
2018-08-11T19:29:16.057Z,132.73
2018-08-11T19:31:43.233Z,96.93
2018-08-11T19:34:10.321Z,61.70
2018-08-11T19:36:37.437Z,33.90
2018-08-11T19:39:07.081Z,20.00
2018-08-11T19:41:34.194Z,15.23
2018-08-11T19:44:01.322Z,9.40
2018-08-11T19:46:28.438Z,6.50
2018-08-11T19:48:55.525Z,4.37
2018-08-11T19:51:22.626Z,3.77
2018-08-11T19:53:49.738Z,4.03
2018-08-11T19:56:16.865Z,3.93
2018-08-11T19:58:44.837Z,2.73
2018-08-11T20:01:11.941Z,2.03
2018-08-11T20:03:39.085Z,3.50
2018-08-11T20:06:06.203Z,2.57
2018-08-11T20:08:33.331Z,2.43
2018-08-11T20:11:00.457Z,4.57
2018-08-11T20:13:27.590Z,4.97
2018-08-11T20:15:54.695Z,14.97
2018-08-11T20:18:21.839Z,5.87
2018-08-11T20:20:48.950Z,6.83
2018-08-11T20:23:16.065Z,7.40
2018-08-11T20:25:44.794Z,11.30
2018-08-11T20:28:12.317Z,3.00
2018-08-11T20:30:39.419Z,4.78
2018-08-11T20:33:06.626Z,2.20
2018-08-11T20:35:33.737Z,8.23
2018-08-11T20:38:00.847Z,4.37
2018-08-11T20:40:27.957Z,2.67
2018-08-11T20:42:55.069Z,1.83
2018-08-11T20:45:22.165Z,5.73
2018-08-11T20:47:49.277Z,6.27
2018-08-11T20:50:16.394Z,4.53
2018-08-11T20:52:43.905Z,2.30
2018-08-11T20:55:11.033Z,6.83
2018-08-11T20:57:38.152Z,2.70
2018-08-11T21:00:08.277Z,1.67
2018-08-11T21:02:35.961Z,3.50
2018-08-11T21:05:05.624Z,1.85
2018-08-11T21:07:32.721Z,2.35
2018-08-11T21:09:59.836Z,7.53
2018-08-11T21:12:26.986Z,3.33
2018-08-11T21:14:54.101Z,2.83
2018-08-11T21:17:21.233Z,4.10
2018-08-11T21:19:48.545Z,2.57
2018-08-11T21:22:15.645Z,5.70
2018-08-11T21:24:42.797Z,0.97
2018-08-11T21:29:36.551Z,5.55
2018-08-11T21:32:03.680Z,3.67
2018-08-11T21:34:30.787Z,1.53
2018-08-11T21:36:57.954Z,1.40
2018-08-11T21:44:20.405Z,1.50
2018-08-11T21:46:47.533Z,2.65
2018-08-11T21:49:14.629Z,4.27
2018-08-11T21:51:41.767Z,2.40
2018-08-11T21:54:08.915Z,1.43
2018-08-11T21:56:36.097Z,2.93
2018-08-11T21:59:03.409Z,2.57
2018-08-11T22:01:30.521Z,3.33
2018-08-11T22:03:58.077Z,4.27
2018-08-11T22:06:25.232Z,3.08
2018-08-11T22:08:52.369Z,2.50
2018-08-11T22:11:19.834Z,3.47
2018-08-11T22:13:46.974Z,3.20
2018-08-11T22:16:14.134Z,4.67
2018-08-11T22:18:43.345Z,1.33
2018-08-11T22:33:23.829Z,1.67
2018-08-11T22:35:51.033Z,1.40
2018-08-11T22:38:18.156Z,1.42
2018-08-11T22:40:45.297Z,4.08
2018-08-11T22:43:12.465Z,2.40
2018-08-11T22:45:39.905Z,4.20
2018-08-11T22:48:07.082Z,2.20
2018-08-11T22:50:34.202Z,1.17
2018-08-11T23:02:48.630Z,1.20
2018-08-11T23:05:17.189Z,1.87
2018-08-11T23:07:44.333Z,2.30
2018-08-11T23:10:12.865Z,4.03
2018-08-11T23:12:40.941Z,1.17
2018-08-11T23:15:10.669Z,3.00
2018-08-11T23:17:37.841Z,5.62
2018-08-11T23:20:05.394Z,3.50
2018-08-11T23:22:32.509Z,1.37
2018-08-11T23:24:59.614Z,2.30
2018-08-11T23:27:26.763Z,2.57
2018-08-11T23:32:20.558Z,3.22
2018-08-11T23:34:47.688Z,1.63
2018-08-11T23:37:14.887Z,2.70
2018-08-11T23:39:42.063Z,2.87
2018-08-11T23:42:09.185Z,3.10
2018-08-11T23:44:36.306Z,2.60
2018-08-11T23:47:03.433Z,1.63
